Unzile Ana — TCA4156 — position and weather

sailwx.info

Track history (hours):
 
Tides and Currents Weather Stations Pressure Air Temp Water Temp Dewpoint Dewpoint Depression Visibility Wind Speed Wind Dir Waves Ship Positions

Unzile Ana

Last reported at 2018-Feb-12 06:40 UTC. Time now 2018-Feb-18 07:16 UTC.
Position N 36°19' E 030°60'.

Length 96 m; draft 5.3 m.

Type: Cargo ship. MMSI: 271044531.

Date/timePositionNaut miles runAvg speedWind from/ knotsBaromVisibWave heightAir tempDewpointWater temp
2018-Feb-12 06:40N 36°19' E 030°60'5 7.0
2018-Feb-12 06:01N 36°20' E 030°54'1 6.8
2018-Feb-12 05:56N 36°20' E 030°54'3 6.7
2018-Feb-12 05:29N 36°21' E 030°50'3 6.7
2018-Feb-12 05:00N 36°21' E 030°46'4 7.5
2018-Feb-12 04:30N 36°22' E 030°42'4 8.3
2018-Feb-12 04:00N 36°23' E 030°37'4 8.3
2018-Feb-12 03:30N 36°24' E 030°32'2 3.1
2018-Feb-12 03:00N 36°25' E 030°30'0 0.0
2018-Feb-12 02:30N 36°25' E 030°30'0 0.0
2018-Feb-12 02:00N 36°25' E 030°30'0 0.0
2018-Feb-12 01:30N 36°25' E 030°30'0 0.0
2018-Feb-12 00:48N 36°25' E 030°30'0 0.0
2018-Feb-12 00:27N 36°25' E 030°30'0 0.0
2018-Feb-11 23:45N 36°25' E 030°30'0 0.0
2018-Feb-11 23:27N 36°25' E 030°30'0 0.0
2018-Feb-11 22:59N 36°25' E 030°30'0 0.0
2018-Feb-11 22:23N 36°25' E 030°30'0 0.1
2018-Feb-11 21:59N 36°25' E 030°30'0 0.0
2018-Feb-11 21:26N 36°25' E 030°30'0 0.0
2018-Feb-11 21:00N 36°25' E 030°30'0 0.0
2018-Feb-11 20:30N 36°25' E 030°30'0 0.1
2018-Feb-11 20:00N 36°25' E 030°30'0 0.0
2018-Feb-11 19:30N 36°25' E 030°30'0 0.0
2018-Feb-11 19:01N 36°25' E 030°30'0 0.0
2018-Feb-11 18:30N 36°25' E 030°30'0 0.9
2018-Feb-11 18:00N 36°24' E 030°30'3 6.0
2018-Feb-11 17:30N 36°22' E 030°32'4 7.3
2018-Feb-11 17:00N 36°18' E 030°32'4 8.3
2018-Feb-11 16:30N 36°14' E 030°31'4 8.2
2018-Feb-11 16:00N 36°11' E 030°28'4 0.2
2018-Feb-11 00:25N 36°08' E 030°26'4 8.0
2018-Feb-10 23:52N 36°07' E 030°31'2 0.2
2018-Feb-10 12:41N 36°07' E 030°33'2 7.7
2018-Feb-10 12:29N 36°07' E 030°31'4 7.6
2018-Feb-10 11:56N 36°07' E 030°26'  
2018-Feb-07 09:30N 40°53' E 029°11'0 0.0
2018-Feb-07 09:00N 40°53' E 029°11'0 0.0
2018-Feb-07 08:30N 40°53' E 029°11'0 0.0
2018-Feb-07 08:00N 40°53' E 029°11'0 0.0
2018-Feb-07 07:30N 40°53' E 029°11'0 0.0
2018-Feb-07 07:00N 40°53' E 029°11'0 0.0
2018-Feb-07 06:30N 40°53' E 029°11'0 0.0
2018-Feb-07 06:00N 40°53' E 029°11'0 0.0
2018-Feb-07 05:30N 40°53' E 029°11'0 0.0
2018-Feb-07 04:59N 40°53' E 029°11'0 0.0
2018-Feb-07 04:30N 40°53' E 029°11'1 1.2
2018-Feb-07 04:00N 40°52' E 029°11'3 6.6
2018-Feb-07 03:30N 40°50' E 029°08'6 8.6
2018-Feb-07 02:50N 40°50' E 029°00'3 8.0
2018-Feb-07 02:30N 40°52' E 028°57'162 6.3
2018-Feb-06 00:45N 43°33' E 028°52'2 8.1
2018-Feb-06 00:27N 43°36' E 028°52'3 7.9
2018-Feb-06 00:00N 43°39' E 028°51'4 7.8
2018-Feb-05 23:30N 43°43' E 028°51'19 7.7
2018-Feb-05 21:00N 44°02' E 028°45'9 4.4
2018-Feb-05 19:00N 44°09' E 028°39'0 0.0
2018-Feb-05 18:30N 44°09' E 028°39'0 0.0
2018-Feb-05 18:00N 44°09' E 028°39'0 0.0
2018-Feb-05 17:30N 44°09' E 028°39'0 0.0
2018-Feb-05 17:00N 44°09' E 028°39'0 0.0
2018-Feb-05 16:30N 44°09' E 028°39'0 0.0
2018-Feb-05 16:00N 44°09' E 028°39'0 0.0
2018-Feb-05 15:30N 44°09' E 028°39'0 0.0
2018-Feb-05 15:00N 44°09' E 028°39'0 0.0
2018-Feb-05 14:30N 44°09' E 028°39'0 0.0
2018-Feb-05 14:00N 44°09' E 028°39'0 0.0
2018-Feb-05 13:30N 44°09' E 028°39'0 0.0
2018-Feb-05 13:00N 44°09' E 028°39'0 0.0
2018-Feb-05 12:30N 44°09' E 028°39'0 0.0
2018-Feb-05 12:00N 44°09' E 028°39'0 0.0
2018-Feb-05 11:30N 44°09' E 028°39'0 0.0
2018-Feb-05 11:00N 44°09' E 028°39'0 0.0
2018-Feb-05 10:30N 44°09' E 028°39'0 0.0
2018-Feb-05 10:00N 44°09' E 028°39'0 0.0
2018-Feb-05 09:30N 44°09' E 028°39'0 0.0
2018-Feb-05 09:00N 44°09' E 028°39'0 0.0
2018-Feb-05 08:30N 44°09' E 028°39'0 0.0
2018-Feb-05 08:00N 44°09' E 028°39'0 0.0
2018-Feb-05 07:30N 44°09' E 028°39'0 0.0
2018-Feb-05 07:00N 44°09' E 028°39'0 0.0
2018-Feb-05 06:30N 44°09' E 028°39'0 0.0
2018-Feb-05 05:30N 44°09' E 028°39'0 0.0
2018-Feb-05 05:00N 44°09' E 028°39'0 0.0
2018-Feb-05 04:30N 44°09' E 028°39'0 0.0
2018-Feb-05 04:00N 44°09' E 028°39'0 0.0
2018-Feb-05 03:30N 44°09' E 028°39'0 0.0
2018-Feb-05 03:00N 44°09' E 028°39'0 0.0
2018-Feb-05 02:30N 44°09' E 028°39'0 0.0
2018-Feb-05 02:00N 44°09' E 028°39'0 0.0
2018-Feb-05 01:30N 44°09' E 028°39'0 0.0
2018-Feb-05 01:00N 44°09' E 028°39'0 0.0
2018-Feb-05 00:30N 44°09' E 028°39'0 0.0
2018-Feb-05 00:00N 44°09' E 028°39'0 0.0
2018-Feb-04 23:30N 44°09' E 028°39'0 0.0
2018-Feb-04 23:00N 44°09' E 028°39'0 0.0
2018-Feb-04 22:30N 44°09' E 028°39'0 0.0
2018-Feb-04 22:00N 44°09' E 028°39'0 0.0
2018-Feb-04 21:30N 44°09' E 028°39'0 0.0
2018-Feb-04 21:00N 44°09' E 028°39'0 0.0
2018-Feb-04 19:59N 44°09' E 028°39'0 0.0
2018-Feb-04 19:29N 44°09' E 028°39'0 0.0
2018-Feb-04 18:59N 44°09' E 028°39'0 0.0
2018-Feb-04 18:29N 44°09' E 028°39'0 0.0
2018-Feb-04 17:59N 44°09' E 028°39'0 0.0
2018-Feb-04 17:29N 44°09' E 028°39'0 0.0
2018-Feb-04 15:29N 44°09' E 028°39'0 0.0
2018-Feb-04 14:59N 44°09' E 028°39'0 0.0
2018-Feb-04 14:29N 44°09' E 028°39'0 0.0
2018-Feb-04 13:59N 44°09' E 028°39'0 0.0
2018-Feb-04 13:29N 44°09' E 028°39'0 0.0
2018-Feb-04 12:59N 44°09' E 028°39'0 0.0
2018-Feb-04 12:29N 44°09' E 028°39'0 0.0
2018-Feb-04 11:59N 44°09' E 028°39'0 0.0
2018-Feb-04 11:29N 44°09' E 028°39'0 0.0
2018-Feb-04 09:56N 44°09' E 028°39'0 0.0
2018-Feb-04 08:59N 44°09' E 028°39'0 0.0
2018-Feb-04 08:29N 44°09' E 028°39'0 0.0
2018-Feb-04 07:59N 44°09' E 028°39'0 0.0
2018-Feb-04 07:29N 44°09' E 028°39'0 0.0
2018-Feb-04 06:56N 44°09' E 028°39'0 0.0
2018-Feb-04 06:29N 44°09' E 028°39'0 0.0
2018-Feb-04 05:59N 44°09' E 028°39'0 0.0
2018-Feb-04 05:29N 44°09' E 028°39'0 0.0
2018-Feb-04 04:59N 44°09' E 028°39'0 0.0
2018-Feb-04 04:29N 44°09' E 028°39'0 0.0
2018-Feb-04 03:59N 44°09' E 028°39'0 0.0
2018-Feb-04 03:29N 44°09' E 028°39'0 0.0
2018-Feb-04 02:59N 44°09' E 028°39'0 0.0
2018-Feb-04 02:29N 44°09' E 028°39'0 0.0
2018-Feb-04 01:59N 44°09' E 028°39'0 0.0
2018-Feb-04 01:29N 44°09' E 028°39'0 0.0
2018-Feb-04 00:59N 44°09' E 028°39'0 0.0
2018-Feb-04 00:29N 44°09' E 028°39'0 0.0
2018-Feb-03 23:59N 44°09' E 028°39'0 0.0
2018-Feb-03 23:29N 44°09' E 028°39'0 0.0
2018-Feb-03 22:59N 44°09' E 028°39'0 0.5
2018-Feb-03 22:30N 44°09' E 028°39'2 4.0
2018-Feb-03 22:00N 44°08' E 028°41'0 0.9
2018-Feb-03 21:30N 44°07' E 028°41'0 0.0
2018-Feb-03 21:00N 44°07' E 028°41'0 0.0
2018-Feb-03 20:30N 44°07' E 028°41'0 0.1
2018-Feb-03 20:00N 44°07' E 028°41'3 1.7
2018-Feb-03 18:31N 44°06' E 028°43'3 6.4
2018-Feb-03 18:01N 44°08' E 028°45'0 0.2
2018-Feb-03 17:28N 44°09' E 028°45'0 0.0
2018-Feb-03 16:58N 44°09' E 028°45'0 0.0
2018-Feb-03 15:58N 44°09' E 028°45'0 0.0
2018-Feb-03 15:28N 44°09' E 028°45'0 0.0
2018-Feb-03 14:58N 44°09' E 028°45'0 0.0
2018-Feb-03 14:28N 44°09' E 028°45'0 0.0
2018-Feb-03 13:58N 44°09' E 028°45'0 0.0
2018-Feb-03 13:28N 44°09' E 028°45'0 0.0
2018-Feb-03 12:58N 44°09' E 028°45'  
Track history (hours):
 
Tides and Currents Weather Stations Pressure Air Temp Water Temp Dewpoint Dewpoint Depression Visibility Wind Speed Wind Dir Waves Ship Positions

Unzile Ana

Last reported at 2018-Feb-12 06:40 UTC. Time now 2018-Feb-18 07:16 UTC.
Position N 36°19' E 030°60'.

Length 96 m; draft 5.3 m.

Type: Cargo ship. MMSI: 271044531.

Date/timePositionNaut miles runAvg speedWind from/ knotsBaromVisibWave heightAir tempDewpointWater temp
2018-Feb-12 06:40N 36°19' E 030°60'5 7.0
2018-Feb-12 06:01N 36°20' E 030°54'1 6.8
2018-Feb-12 05:56N 36°20' E 030°54'3 6.7
2018-Feb-12 05:29N 36°21' E 030°50'3 6.7
2018-Feb-12 05:00N 36°21' E 030°46'4 7.5
2018-Feb-12 04:30N 36°22' E 030°42'4 8.3
2018-Feb-12 04:00N 36°23' E 030°37'4 8.3
2018-Feb-12 03:30N 36°24' E 030°32'2 3.1
2018-Feb-12 03:00N 36°25' E 030°30'0 0.0
2018-Feb-12 02:30N 36°25' E 030°30'0 0.0
2018-Feb-12 02:00N 36°25' E 030°30'0 0.0
2018-Feb-12 01:30N 36°25' E 030°30'0 0.0
2018-Feb-12 00:48N 36°25' E 030°30'0 0.0
2018-Feb-12 00:27N 36°25' E 030°30'0 0.0
2018-Feb-11 23:45N 36°25' E 030°30'0 0.0
2018-Feb-11 23:27N 36°25' E 030°30'0 0.0
2018-Feb-11 22:59N 36°25' E 030°30'0 0.0
2018-Feb-11 22:23N 36°25' E 030°30'0 0.1
2018-Feb-11 21:59N 36°25' E 030°30'0 0.0
2018-Feb-11 21:26N 36°25' E 030°30'0 0.0
2018-Feb-11 21:00N 36°25' E 030°30'0 0.0
2018-Feb-11 20:30N 36°25' E 030°30'0 0.1
2018-Feb-11 20:00N 36°25' E 030°30'0 0.0
2018-Feb-11 19:30N 36°25' E 030°30'0 0.0
2018-Feb-11 19:01N 36°25' E 030°30'0 0.0
2018-Feb-11 18:30N 36°25' E 030°30'0 0.9
2018-Feb-11 18:00N 36°24' E 030°30'3 6.0
2018-Feb-11 17:30N 36°22' E 030°32'4 7.3
2018-Feb-11 17:00N 36°18' E 030°32'4 8.3
2018-Feb-11 16:30N 36°14' E 030°31'4 8.2
2018-Feb-11 16:00N 36°11' E 030°28'4 0.2
2018-Feb-11 00:25N 36°08' E 030°26'4 8.0
2018-Feb-10 23:52N 36°07' E 030°31'2 0.2
2018-Feb-10 12:41N 36°07' E 030°33'2 7.7
2018-Feb-10 12:29N 36°07' E 030°31'4 7.6
2018-Feb-10 11:56N 36°07' E 030°26'  
2018-Feb-07 09:30N 40°53' E 029°11'0 0.0
2018-Feb-07 09:00N 40°53' E 029°11'0 0.0
2018-Feb-07 08:30N 40°53' E 029°11'0 0.0
2018-Feb-07 08:00N 40°53' E 029°11'0 0.0
2018-Feb-07 07:30N 40°53' E 029°11'0 0.0
2018-Feb-07 07:00N 40°53' E 029°11'0 0.0
2018-Feb-07 06:30N 40°53' E 029°11'0 0.0
2018-Feb-07 06:00N 40°53' E 029°11'0 0.0
2018-Feb-07 05:30N 40°53' E 029°11'0 0.0
2018-Feb-07 04:59N 40°53' E 029°11'0 0.0
2018-Feb-07 04:30N 40°53' E 029°11'1 1.2
2018-Feb-07 04:00N 40°52' E 029°11'3 6.6
2018-Feb-07 03:30N 40°50' E 029°08'6 8.6
2018-Feb-07 02:50N 40°50' E 029°00'3 8.0
2018-Feb-07 02:30N 40°52' E 028°57'162 6.3
2018-Feb-06 00:45N 43°33' E 028°52'2 8.1
2018-Feb-06 00:27N 43°36' E 028°52'3 7.9
2018-Feb-06 00:00N 43°39' E 028°51'4 7.8
2018-Feb-05 23:30N 43°43' E 028°51'19 7.7
2018-Feb-05 21:00N 44°02' E 028°45'9 4.4
2018-Feb-05 19:00N 44°09' E 028°39'0 0.0
2018-Feb-05 18:30N 44°09' E 028°39'0 0.0
2018-Feb-05 18:00N 44°09' E 028°39'0 0.0
2018-Feb-05 17:30N 44°09' E 028°39'0 0.0
2018-Feb-05 17:00N 44°09' E 028°39'0 0.0
2018-Feb-05 16:30N 44°09' E 028°39'0 0.0
2018-Feb-05 16:00N 44°09' E 028°39'0 0.0
2018-Feb-05 15:30N 44°09' E 028°39'0 0.0
2018-Feb-05 15:00N 44°09' E 028°39'0 0.0
2018-Feb-05 14:30N 44°09' E 028°39'0 0.0
2018-Feb-05 14:00N 44°09' E 028°39'0 0.0
2018-Feb-05 13:30N 44°09' E 028°39'0 0.0
2018-Feb-05 13:00N 44°09' E 028°39'0 0.0
2018-Feb-05 12:30N 44°09' E 028°39'0 0.0
2018-Feb-05 12:00N 44°09' E 028°39'0 0.0
2018-Feb-05 11:30N 44°09' E 028°39'0 0.0
2018-Feb-05 11:00N 44°09' E 028°39'0 0.0
2018-Feb-05 10:30N 44°09' E 028°39'0 0.0
2018-Feb-05 10:00N 44°09' E 028°39'0 0.0
2018-Feb-05 09:30N 44°09' E 028°39'0 0.0
2018-Feb-05 09:00N 44°09' E 028°39'0 0.0
2018-Feb-05 08:30N 44°09' E 028°39'0 0.0
2018-Feb-05 08:00N 44°09' E 028°39'0 0.0
2018-Feb-05 07:30N 44°09' E 028°39'0 0.0
2018-Feb-05 07:00N 44°09' E 028°39'0 0.0
2018-Feb-05 06:30N 44°09' E 028°39'0 0.0
2018-Feb-05 05:30N 44°09' E 028°39'0 0.0
2018-Feb-05 05:00N 44°09' E 028°39'0 0.0
2018-Feb-05 04:30N 44°09' E 028°39'0 0.0
2018-Feb-05 04:00N 44°09' E 028°39'0 0.0
2018-Feb-05 03:30N 44°09' E 028°39'0 0.0
2018-Feb-05 03:00N 44°09' E 028°39'0 0.0
2018-Feb-05 02:30N 44°09' E 028°39'0 0.0
2018-Feb-05 02:00N 44°09' E 028°39'0 0.0
2018-Feb-05 01:30N 44°09' E 028°39'0 0.0
2018-Feb-05 01:00N 44°09' E 028°39'0 0.0
2018-Feb-05 00:30N 44°09' E 028°39'0 0.0
2018-Feb-05 00:00N 44°09' E 028°39'0 0.0
2018-Feb-04 23:30N 44°09' E 028°39'0 0.0
2018-Feb-04 23:00N 44°09' E 028°39'0 0.0
2018-Feb-04 22:30N 44°09' E 028°39'0 0.0
2018-Feb-04 22:00N 44°09' E 028°39'0 0.0
2018-Feb-04 21:30N 44°09' E 028°39'0 0.0
2018-Feb-04 21:00N 44°09' E 028°39'0 0.0
2018-Feb-04 19:59N 44°09' E 028°39'0 0.0
2018-Feb-04 19:29N 44°09' E 028°39'0 0.0
2018-Feb-04 18:59N 44°09' E 028°39'0 0.0
2018-Feb-04 18:29N 44°09' E 028°39'0 0.0
2018-Feb-04 17:59N 44°09' E 028°39'0 0.0
2018-Feb-04 17:29N 44°09' E 028°39'0 0.0
2018-Feb-04 15:29N 44°09' E 028°39'0 0.0
2018-Feb-04 14:59N 44°09' E 028°39'0 0.0
2018-Feb-04 14:29N 44°09' E 028°39'0 0.0
2018-Feb-04 13:59N 44°09' E 028°39'0 0.0
2018-Feb-04 13:29N 44°09' E 028°39'0 0.0
2018-Feb-04 12:59N 44°09' E 028°39'0 0.0
2018-Feb-04 12:29N 44°09' E 028°39'0 0.0
2018-Feb-04 11:59N 44°09' E 028°39'0 0.0
2018-Feb-04 11:29N 44°09' E 028°39'0 0.0
2018-Feb-04 09:56N 44°09' E 028°39'0 0.0
2018-Feb-04 08:59N 44°09' E 028°39'0 0.0
2018-Feb-04 08:29N 44°09' E 028°39'0 0.0
2018-Feb-04 07:59N 44°09' E 028°39'0 0.0
2018-Feb-04 07:29N 44°09' E 028°39'0 0.0
2018-Feb-04 06:56N 44°09' E 028°39'0 0.0
2018-Feb-04 06:29N 44°09' E 028°39'0 0.0
2018-Feb-04 05:59N 44°09' E 028°39'0 0.0
2018-Feb-04 05:29N 44°09' E 028°39'0 0.0
2018-Feb-04 04:59N 44°09' E 028°39'0 0.0
2018-Feb-04 04:29N 44°09' E 028°39'0 0.0
2018-Feb-04 03:59N 44°09' E 028°39'0 0.0
2018-Feb-04 03:29N 44°09' E 028°39'0 0.0
2018-Feb-04 02:59N 44°09' E 028°39'0 0.0
2018-Feb-04 02:29N 44°09' E 028°39'0 0.0
2018-Feb-04 01:59N 44°09' E 028°39'0 0.0
2018-Feb-04 01:29N 44°09' E 028°39'0 0.0
2018-Feb-04 00:59N 44°09' E 028°39'0 0.0
2018-Feb-04 00:29N 44°09' E 028°39'0 0.0
2018-Feb-03 23:59N 44°09' E 028°39'0 0.0
2018-Feb-03 23:29N 44°09' E 028°39'0 0.0
2018-Feb-03 22:59N 44°09' E 028°39'0 0.5
2018-Feb-03 22:30N 44°09' E 028°39'2 4.0
2018-Feb-03 22:00N 44°08' E 028°41'0 0.9
2018-Feb-03 21:30N 44°07' E 028°41'0 0.0
2018-Feb-03 21:00N 44°07' E 028°41'0 0.0
2018-Feb-03 20:30N 44°07' E 028°41'0 0.1
2018-Feb-03 20:00N 44°07' E 028°41'3 1.7
2018-Feb-03 18:31N 44°06' E 028°43'3 6.4
2018-Feb-03 18:01N 44°08' E 028°45'0 0.2
2018-Feb-03 17:28N 44°09' E 028°45'0 0.0
2018-Feb-03 16:58N 44°09' E 028°45'0 0.0
2018-Feb-03 15:58N 44°09' E 028°45'0 0.0
2018-Feb-03 15:28N 44°09' E 028°45'0 0.0
2018-Feb-03 14:58N 44°09' E 028°45'0 0.0
2018-Feb-03 14:28N 44°09' E 028°45'0 0.0
2018-Feb-03 13:58N 44°09' E 028°45'0 0.0
2018-Feb-03 13:28N 44°09' E 028°45'0 0.0
2018-Feb-03 12:58N 44°09' E 028°45'  

Dump ship's entire track history